createdAt,value
2023-03-01T00:00:23.135Z,-3.45
2023-03-01T00:02:49.440Z,-3.48
2023-03-01T00:05:15.835Z,-3.47
2023-03-01T00:07:42.173Z,-3.48
2023-03-01T00:10:09.207Z,-3.46
2023-03-01T00:12:35.506Z,-3.51
2023-03-01T00:15:01.876Z,-3.43
2023-03-01T00:17:28.637Z,-3.47
2023-03-01T00:19:55.313Z,-3.45
2023-03-01T00:22:21.643Z,-3.51
2023-03-01T00:24:47.948Z,-3.49
2023-03-01T00:27:14.232Z,-3.55
2023-03-01T00:29:40.483Z,-3.63
2023-03-01T00:32:06.838Z,-3.69
2023-03-01T00:34:33.132Z,-3.70
2023-03-01T00:36:59.454Z,-3.70
2023-03-01T00:39:25.756Z,-3.74
2023-03-01T00:41:52.062Z,-3.79
2023-03-01T00:44:18.410Z,-3.76
2023-03-01T00:46:44.721Z,-3.77
2023-03-01T00:49:11.037Z,-3.82
2023-03-01T00:51:37.369Z,-3.87
2023-03-01T00:54:04.010Z,-3.94
2023-03-01T00:56:31.454Z,-4.00
2023-03-01T00:58:58.213Z,-4.00
2023-03-01T01:01:27.599Z,-3.94
2023-03-01T01:04:03.010Z,-3.87
2023-03-01T01:06:33.442Z,-3.87
2023-03-01T01:09:01.006Z,-3.89
2023-03-01T01:11:29.068Z,-3.95
2023-03-01T01:13:56.063Z,-4.06
2023-03-01T01:16:24.042Z,-4.06
2023-03-01T01:18:50.654Z,-4.02
2023-03-01T01:21:21.323Z,-4.00
2023-03-01T01:23:48.423Z,-3.97
2023-03-01T01:26:27.586Z,-4.01
2023-03-01T01:28:54.717Z,-3.96
2023-03-01T01:31:22.036Z,-3.97
2023-03-01T01:33:48.366Z,-3.98
2023-03-01T01:36:14.704Z,-4.08
2023-03-01T01:38:41.180Z,-4.15
2023-03-01T01:41:07.997Z,-4.15
2023-03-01T01:43:38.677Z,-4.09
2023-03-01T01:46:16.300Z,-4.14
2023-03-01T01:48:47.877Z,-4.13
2023-03-01T01:51:19.824Z,-4.25
2023-03-01T01:53:53.997Z,-4.23
2023-03-01T01:56:22.390Z,-4.30
2023-03-01T01:58:49.082Z,-4.34
2023-03-01T02:01:15.493Z,-4.38
2023-03-01T02:03:44.860Z,-4.39
2023-03-01T02:06:18.147Z,-4.38
2023-03-01T02:08:46.578Z,-4.41
2023-03-01T02:11:14.347Z,-4.42
2023-03-01T02:13:42.154Z,-4.49
2023-03-01T02:16:14.103Z,-4.51
2023-03-01T02:18:42.080Z,-4.52
2023-03-01T02:21:26.713Z,-4.50
2023-03-01T02:23:54.706Z,-4.45
2023-03-01T02:26:37.322Z,-4.54
2023-03-01T02:29:03.984Z,-4.62
2023-03-01T02:31:30.315Z,-4.65
2023-03-01T02:33:58.041Z,-4.67
2023-03-01T02:36:26.046Z,-4.64
2023-03-01T02:38:56.695Z,-4.61
2023-03-01T02:41:25.577Z,-4.66
2023-03-01T02:43:51.935Z,-4.79
2023-03-01T02:46:21.765Z,-4.76
2023-03-01T02:48:53.060Z,-4.71
2023-03-01T02:51:39.454Z,-4.72
2023-03-01T02:54:34.762Z,-4.75
2023-03-01T02:57:01.804Z,-4.81
2023-03-01T02:59:31.344Z,-4.82
2023-03-01T03:01:57.841Z,-4.77
2023-03-01T03:04:24.139Z,-4.78
2023-03-01T03:06:51.846Z,-4.79
2023-03-01T03:09:18.437Z,-4.84
2023-03-01T03:11:44.911Z,-4.89
2023-03-01T03:14:14.349Z,-4.92
2023-03-01T03:16:46.317Z,-4.90
2023-03-01T03:19:13.126Z,-4.89
2023-03-01T03:21:40.138Z,-4.89
2023-03-01T03:24:06.523Z,-4.91
2023-03-01T03:26:33.397Z,-4.97
2023-03-01T03:28:59.885Z,-4.99
2023-03-01T03:31:26.466Z,-4.98
2023-03-01T03:33:52.814Z,-5.05
2023-03-01T03:36:21.857Z,-5.06
2023-03-01T03:38:48.610Z,-5.10
2023-03-01T03:41:15.370Z,-5.16
2023-03-01T03:43:42.833Z,-5.20
2023-03-01T03:46:10.939Z,-5.17
2023-03-01T03:48:40.935Z,-5.20
2023-03-01T03:51:10.330Z,-5.18
2023-03-01T03:53:36.649Z,-5.16
2023-03-01T03:56:03.051Z,-5.18
2023-03-01T03:58:29.328Z,-5.18
2023-03-01T04:00:57.905Z,-5.16
2023-03-01T04:03:25.871Z,-5.20
2023-03-01T04:05:53.383Z,-5.21
2023-03-01T04:08:23.990Z,-5.21
2023-03-01T04:10:52.899Z,-5.24
2023-03-01T04:13:23.404Z,-5.28
2023-03-01T04:15:50.967Z,-5.27
2023-03-01T04:18:18.162Z,-5.25
2023-03-01T04:20:44.944Z,-5.27
2023-03-01T04:23:17.453Z,-5.32
2023-03-01T04:25:47.189Z,-5.34
2023-03-01T04:28:13.679Z,-5.35
2023-03-01T04:30:40.119Z,-5.32
2023-03-01T04:33:08.051Z,-5.34
2023-03-01T04:35:36.116Z,-5.34
2023-03-01T04:38:02.844Z,-5.26
2023-03-01T04:40:29.374Z,-5.32
2023-03-01T04:42:55.656Z,-5.29
2023-03-01T04:45:22.082Z,-5.27
2023-03-01T04:47:48.564Z,-5.28
2023-03-01T04:50:17.920Z,-5.28
2023-03-01T04:52:44.804Z,-5.21
2023-03-01T04:55:11.738Z,-5.20
2023-03-01T04:57:38.193Z,-5.22
2023-03-01T05:00:07.021Z,-5.18
2023-03-01T05:02:33.329Z,-5.21
2023-03-01T05:04:59.636Z,-5.19
2023-03-01T05:07:25.984Z,-5.21
2023-03-01T05:09:54.036Z,-5.30
2023-03-01T05:12:21.327Z,-5.40
2023-03-01T05:14:47.618Z,-5.45
2023-03-01T05:17:13.928Z,-5.43
2023-03-01T05:19:40.226Z,-5.51
2023-03-01T05:22:09.318Z,-5.50
2023-03-01T05:24:36.700Z,-5.50
2023-03-01T05:27:03.664Z,-5.53
2023-03-01T05:29:32.335Z,-5.55
2023-03-01T05:32:00.494Z,-5.59
2023-03-01T05:34:28.944Z,-5.64
2023-03-01T05:36:55.782Z,-5.56
2023-03-01T05:39:23.983Z,-5.62
2023-03-01T05:41:55.431Z,-5.59
2023-03-01T05:44:21.748Z,-5.61
2023-03-01T05:46:48.325Z,-5.66
2023-03-01T05:49:14.894Z,-5.66
2023-03-01T05:51:42.269Z,-5.63
2023-03-01T05:54:09.407Z,-5.68
2023-03-01T05:56:37.491Z,-5.72
2023-03-01T05:59:05.195Z,-5.70
2023-03-01T06:01:35.497Z,-5.71
2023-03-01T06:04:02.906Z,-5.73
2023-03-01T06:06:29.547Z,-5.72
2023-03-01T06:08:56.342Z,-5.71
2023-03-01T06:11:23.199Z,-5.64
2023-03-01T06:13:49.486Z,-5.63
2023-03-01T06:16:15.918Z,-5.65
2023-03-01T06:18:42.316Z,-5.64
2023-03-01T06:21:09.886Z,-5.59
2023-03-01T06:23:36.405Z,-5.58
2023-03-01T06:26:07.703Z,-5.55
2023-03-01T06:28:34.333Z,-5.53
2023-03-01T06:31:00.680Z,-5.49
2023-03-01T06:33:27.019Z,-5.45
2023-03-01T06:35:56.039Z,-5.42
2023-03-01T06:38:22.880Z,-5.40
2023-03-01T06:40:55.848Z,-5.36
2023-03-01T06:43:22.667Z,-5.31
2023-03-01T06:45:48.930Z,-5.24
2023-03-01T06:48:15.238Z,-5.16
2023-03-01T06:50:41.803Z,-5.07
2023-03-01T06:53:08.185Z,-5.02
2023-03-01T06:55:34.489Z,-4.98
2023-03-01T06:58:02.742Z,-4.88
2023-03-01T07:00:29.861Z,-4.77
2023-03-01T07:02:58.764Z,-4.64
2023-03-01T07:05:25.157Z,-4.52
2023-03-01T07:07:51.462Z,-4.47
2023-03-01T07:10:17.907Z,-4.35
2023-03-01T07:12:44.210Z,-4.27
2023-03-01T07:15:11.185Z,-4.17
2023-03-01T07:17:37.470Z,-4.07
2023-03-01T07:20:04.417Z,-3.95
2023-03-01T07:22:30.753Z,-3.82
2023-03-01T07:24:57.065Z,-3.70
2023-03-01T07:27:23.334Z,-3.58
2023-03-01T07:29:49.636Z,-3.45
2023-03-01T07:32:16.035Z,-3.35
2023-03-01T07:34:42.378Z,-3.20
2023-03-01T07:37:08.689Z,-3.06
2023-03-01T07:39:34.976Z,-2.90
2023-03-01T07:42:01.286Z,-2.72
2023-03-01T07:44:27.616Z,-2.58
2023-03-01T07:46:53.914Z,-2.43
2023-03-01T07:49:20.317Z,-2.26
2023-03-01T07:51:46.622Z,-2.04
2023-03-01T07:54:12.918Z,-1.90
2023-03-01T07:56:39.224Z,-1.77
2023-03-01T07:59:05.584Z,-1.65
2023-03-01T08:01:31.910Z,-1.45
2023-03-01T08:03:58.194Z,-1.27
2023-03-01T08:06:24.522Z,-1.12
2023-03-01T08:08:50.932Z,-0.95
2023-03-01T08:11:17.268Z,-0.81
2023-03-01T08:13:44.195Z,-0.52
2023-03-01T08:16:16.431Z,-0.34
2023-03-01T08:18:44.175Z,-0.27
2023-03-01T08:21:13.498Z,-0.23
2023-03-01T08:23:40.734Z,-0.14
2023-03-01T08:26:13.702Z,-0.07
2023-03-01T08:28:40.968Z,0.02
2023-03-01T08:31:29.031Z,0.20
2023-03-01T08:33:58.317Z,0.25
2023-03-01T08:36:26.306Z,0.33
2023-03-01T08:38:53.446Z,0.35
2023-03-01T08:41:19.967Z,0.57
2023-03-01T08:43:47.043Z,0.73
2023-03-01T08:46:13.838Z,0.88
2023-03-01T08:48:40.374Z,0.95
2023-03-01T08:51:11.110Z,0.90
2023-03-01T08:53:37.446Z,0.92
2023-03-01T08:56:04.298Z,1.11
2023-03-01T08:58:30.813Z,1.12
2023-03-01T09:00:57.483Z,1.16
2023-03-01T09:03:24.928Z,1.40
2023-03-01T09:05:52.402Z,1.62
2023-03-01T09:08:19.125Z,1.67
2023-03-01T09:10:45.665Z,1.75
2023-03-01T09:13:12.060Z,1.86
2023-03-01T09:15:39.383Z,1.91
2023-03-01T09:18:06.344Z,2.01
2023-03-01T09:20:33.344Z,2.23
2023-03-01T09:22:59.674Z,2.31
2023-03-01T09:25:26.169Z,2.48
2023-03-01T09:27:53.480Z,2.58
2023-03-01T09:30:20.805Z,2.71
2023-03-01T09:32:47.373Z,2.72
2023-03-01T09:35:13.882Z,2.96
2023-03-01T09:37:40.377Z,3.04
2023-03-01T09:40:07.882Z,3.13
2023-03-01T09:42:35.646Z,3.25
2023-03-01T09:45:15.829Z,3.36
2023-03-01T09:47:42.241Z,3.49
2023-03-01T09:50:18.080Z,3.54
2023-03-01T09:52:51.433Z,3.63
2023-03-01T09:55:26.540Z,3.65
2023-03-01T09:58:01.698Z,3.77
2023-03-01T10:00:37.993Z,3.88
2023-03-01T10:03:21.622Z,3.87
2023-03-01T10:05:57.512Z,3.94
2023-03-01T10:08:33.859Z,3.84
2023-03-01T10:11:00.327Z,3.95
2023-03-01T10:13:45.016Z,4.17
2023-03-01T10:16:17.688Z,4.11
2023-03-01T10:18:48.377Z,4.13
2023-03-01T10:21:19.843Z,4.17
2023-03-01T10:23:50.346Z,4.32
2023-03-01T10:26:42.796Z,4.29
2023-03-01T10:29:14.089Z,4.35
2023-03-01T10:32:00.807Z,4.39
2023-03-01T10:34:36.441Z,4.48
2023-03-01T10:37:15.169Z,4.53
2023-03-01T10:40:01.562Z,4.44
2023-03-01T10:42:33.204Z,4.50
2023-03-01T10:45:18.271Z,4.62
2023-03-01T10:47:44.621Z,4.58
2023-03-01T10:50:22.938Z,4.68
2023-03-01T10:53:01.001Z,4.70
2023-03-01T10:55:38.890Z,4.79
2023-03-01T10:58:22.130Z,4.87
2023-03-01T11:00:55.221Z,4.99
2023-03-01T11:03:28.648Z,5.05
2023-03-01T11:05:54.844Z,5.06
2023-03-01T11:08:42.428Z,5.19
2023-03-01T11:11:19.770Z,5.25
2023-03-01T11:13:58.281Z,5.33
2023-03-01T11:16:46.306Z,5.47
2023-03-01T11:19:12.573Z,5.52
2023-03-01T11:21:51.808Z,5.57
2023-03-01T11:24:19.052Z,5.72
2023-03-01T11:26:54.870Z,5.85
2023-03-01T11:29:47.926Z,5.85
2023-03-01T11:32:16.278Z,6.06
2023-03-01T11:34:54.237Z,6.06
2023-03-01T11:37:33.136Z,6.08
2023-03-01T11:40:11.317Z,6.10
2023-03-01T11:42:50.954Z,6.22
2023-03-01T11:45:17.363Z,6.34
2023-03-01T11:48:12.404Z,6.42
2023-03-01T11:50:51.101Z,6.60
2023-03-01T11:53:42.090Z,6.67
2023-03-01T11:56:55.864Z,6.54
2023-03-01T11:59:52.333Z,6.72
2023-03-01T12:02:40.214Z,6.95
2023-03-01T12:05:24.855Z,6.95
2023-03-01T12:08:32.240Z,6.99
2023-03-01T12:11:10.449Z,7.05
2023-03-01T12:13:57.952Z,7.11
2023-03-01T12:16:45.737Z,7.25
2023-03-01T12:19:33.613Z,7.42
2023-03-01T12:22:21.144Z,7.27
2023-03-01T12:25:02.725Z,7.56
2023-03-01T12:27:38.221Z,7.79
2023-03-01T12:30:10.778Z,7.78
2023-03-01T12:32:53.137Z,7.79
2023-03-01T12:36:01.753Z,7.88
2023-03-01T12:38:46.967Z,8.03
2023-03-01T12:41:27.147Z,7.95
2023-03-01T12:44:14.524Z,8.14
2023-03-01T12:47:03.411Z,7.94
2023-03-01T12:49:35.378Z,8.05
2023-03-01T12:52:29.835Z,7.98
2023-03-01T12:55:00.358Z,8.12
2023-03-01T12:57:29.384Z,8.08
2023-03-01T13:00:07.932Z,8.16
2023-03-01T13:02:49.322Z,8.27
2023-03-01T13:05:35.304Z,8.23
2023-03-01T13:08:19.804Z,8.28
2023-03-01T13:11:03.969Z,8.43
2023-03-01T13:13:30.925Z,8.59
2023-03-01T13:15:58.122Z,8.77
2023-03-01T13:18:24.375Z,8.81
2023-03-01T13:20:52.475Z,8.75
2023-03-01T13:23:21.527Z,8.55
2023-03-01T13:26:12.467Z,8.46
2023-03-01T13:28:44.632Z,8.38
2023-03-01T13:31:30.875Z,8.35
2023-03-01T13:34:01.489Z,8.18
2023-03-01T13:36:31.513Z,8.04
2023-03-01T13:39:01.322Z,8.26
2023-03-01T13:41:39.542Z,8.35
2023-03-01T13:44:24.140Z,8.39
2023-03-01T13:46:52.300Z,8.41
2023-03-01T13:49:22.639Z,8.20
2023-03-01T13:51:50.696Z,8.27
2023-03-01T13:54:27.427Z,8.27
2023-03-01T13:56:55.130Z,8.34
2023-03-01T13:59:23.066Z,8.42
2023-03-01T14:01:54.989Z,8.35
2023-03-01T14:04:30.457Z,8.41
2023-03-01T14:07:19.606Z,8.47
2023-03-01T14:09:49.659Z,8.33
2023-03-01T14:12:24.678Z,8.34
2023-03-01T14:15:05.241Z,8.22
2023-03-01T14:17:52.759Z,8.37
2023-03-01T14:20:24.013Z,8.28
2023-03-01T14:22:54.448Z,8.15
2023-03-01T14:25:27.983Z,8.15
2023-03-01T14:27:59.370Z,7.98
2023-03-01T14:30:42.287Z,7.92
2023-03-01T14:33:24.256Z,7.91
2023-03-01T14:36:26.241Z,7.76
2023-03-01T14:38:52.555Z,7.61
2023-03-01T14:41:24.654Z,7.63
2023-03-01T14:43:54.161Z,7.58
2023-03-01T14:46:39.114Z,7.46
2023-03-01T14:49:11.971Z,7.45
2023-03-01T14:51:41.101Z,7.42
2023-03-01T14:54:21.975Z,7.45
2023-03-01T14:56:48.687Z,7.25
2023-03-01T14:59:15.046Z,7.28
2023-03-01T15:01:42.871Z,7.31
2023-03-01T15:04:13.222Z,7.18
2023-03-01T15:06:40.092Z,7.08
2023-03-01T15:09:08.000Z,7.01
2023-03-01T15:11:34.501Z,7.10
2023-03-01T15:14:00.849Z,7.14
2023-03-01T15:16:32.236Z,7.08
2023-03-01T15:19:02.423Z,7.01
2023-03-01T15:21:33.493Z,6.95
2023-03-01T15:24:28.950Z,6.91
2023-03-01T15:27:00.948Z,6.85
2023-03-01T15:29:30.045Z,6.84
2023-03-01T15:32:24.788Z,6.80
2023-03-01T15:34:51.389Z,6.74
2023-03-01T15:37:44.406Z,6.74
2023-03-01T15:40:30.599Z,6.68
2023-03-01T15:42:56.888Z,6.69
2023-03-01T15:45:26.005Z,6.63
2023-03-01T15:47:55.050Z,6.60
2023-03-01T15:50:27.717Z,6.53
2023-03-01T15:52:55.172Z,6.51
2023-03-01T15:55:23.872Z,6.49
2023-03-01T15:57:50.658Z,6.44
2023-03-01T16:00:20.402Z,6.46
2023-03-01T16:02:46.730Z,6.47
2023-03-01T16:05:23.439Z,6.43
2023-03-01T16:07:50.214Z,6.30
2023-03-01T16:10:17.322Z,6.29
2023-03-01T16:12:43.669Z,6.12
2023-03-01T16:15:36.928Z,6.11
2023-03-01T16:18:04.294Z,6.04
2023-03-01T16:20:33.513Z,5.94
2023-03-01T16:23:02.636Z,5.86
2023-03-01T16:25:30.485Z,5.79
2023-03-01T16:27:57.242Z,5.74
2023-03-01T16:30:23.918Z,5.69
2023-03-01T16:32:51.475Z,5.64
2023-03-01T16:35:20.919Z,5.51
2023-03-01T16:37:49.694Z,5.42
2023-03-01T16:40:20.515Z,5.33
2023-03-01T16:42:47.859Z,5.25
2023-03-01T16:45:23.751Z,5.20
2023-03-01T16:47:51.758Z,5.07
2023-03-01T16:50:19.251Z,4.93
2023-03-01T16:52:45.672Z,4.85
2023-03-01T16:55:12.501Z,4.64
2023-03-01T16:57:39.220Z,4.58
2023-03-01T17:00:07.376Z,4.47
2023-03-01T17:02:37.718Z,4.37
2023-03-01T17:05:04.815Z,4.25
2023-03-01T17:07:32.212Z,4.10
2023-03-01T17:09:58.555Z,4.00
2023-03-01T17:12:24.825Z,4.00
2023-03-01T17:14:51.137Z,3.92
2023-03-01T17:17:17.454Z,3.78
2023-03-01T17:19:43.761Z,3.61
2023-03-01T17:22:11.554Z,3.58
2023-03-01T17:24:39.127Z,3.46
2023-03-01T17:27:05.884Z,3.35
2023-03-01T17:29:32.420Z,3.29
2023-03-01T17:31:58.980Z,3.23
2023-03-01T17:34:26.081Z,3.20
2023-03-01T17:36:53.079Z,3.11
2023-03-01T17:39:19.682Z,3.12
2023-03-01T17:41:45.993Z,3.02
2023-03-01T17:44:12.755Z,2.86
2023-03-01T17:46:39.102Z,2.87
2023-03-01T17:49:05.411Z,2.74
2023-03-01T17:51:31.989Z,2.70
2023-03-01T17:53:58.585Z,2.64
2023-03-01T17:56:24.899Z,2.54
2023-03-01T17:58:51.176Z,2.47
2023-03-01T18:01:19.890Z,2.40
2023-03-01T18:03:47.585Z,2.36
2023-03-01T18:06:19.749Z,2.32
2023-03-01T18:08:46.910Z,2.24
2023-03-01T18:11:14.320Z,2.06
2023-03-01T18:13:41.224Z,1.98
2023-03-01T18:16:09.403Z,1.93
2023-03-01T18:18:39.275Z,1.84
2023-03-01T18:21:06.424Z,1.71
2023-03-01T18:23:34.845Z,1.65
2023-03-01T18:26:04.480Z,1.62
2023-03-01T18:28:32.341Z,1.55
2023-03-01T18:31:04.121Z,1.48
2023-03-01T18:33:33.226Z,1.43
2023-03-01T18:35:59.613Z,1.42
2023-03-01T18:38:25.953Z,1.38
2023-03-01T18:40:53.041Z,1.32
2023-03-01T18:43:19.585Z,1.26
2023-03-01T18:45:46.038Z,1.18
2023-03-01T18:48:12.961Z,1.15
2023-03-01T18:50:39.575Z,1.15
2023-03-01T18:53:05.871Z,1.09
2023-03-01T18:55:36.238Z,1.05
2023-03-01T18:58:02.597Z,1.06
2023-03-01T19:00:28.910Z,1.02
2023-03-01T19:02:55.248Z,1.01
2023-03-01T19:05:21.669Z,0.92
2023-03-01T19:07:47.959Z,0.85
2023-03-01T19:10:14.292Z,0.86
2023-03-01T19:12:40.579Z,0.83
2023-03-01T19:15:07.393Z,0.78
2023-03-01T19:17:34.459Z,0.78
2023-03-01T19:20:00.743Z,0.74
2023-03-01T19:22:27.333Z,0.68
2023-03-01T19:24:53.719Z,0.60
2023-03-01T19:27:20.111Z,0.57
2023-03-01T19:29:46.454Z,0.49
2023-03-01T19:32:12.823Z,0.45
2023-03-01T19:34:39.174Z,0.50
2023-03-01T19:37:05.474Z,0.53
2023-03-01T19:39:31.753Z,0.53
2023-03-01T19:41:58.083Z,0.44
2023-03-01T19:44:24.383Z,0.46
2023-03-01T19:46:55.163Z,0.32
2023-03-01T19:49:21.475Z,0.28
2023-03-01T19:51:47.769Z,0.24
2023-03-01T19:54:14.062Z,0.14
2023-03-01T19:56:40.843Z,0.10
2023-03-01T19:59:07.274Z,0.10
2023-03-01T20:01:35.024Z,0.05
2023-03-01T20:04:02.012Z,-0.01
2023-03-01T20:06:28.402Z,-0.03
2023-03-01T20:08:54.749Z,-0.08
2023-03-01T20:11:22.382Z,-0.09
2023-03-01T20:13:48.731Z,-0.13
2023-03-01T20:16:16.982Z,-0.12
2023-03-01T20:18:43.979Z,-0.19
2023-03-01T20:21:22.747Z,-0.22
2023-03-01T20:23:50.278Z,-0.31
2023-03-01T20:26:16.944Z,-0.34
2023-03-01T20:28:43.900Z,-0.40
2023-03-01T20:31:12.946Z,-0.38
2023-03-01T20:33:39.300Z,-0.34
2023-03-01T20:36:06.663Z,-0.39
2023-03-01T20:38:33.659Z,-0.44
2023-03-01T20:41:09.341Z,-0.46
2023-03-01T20:43:36.863Z,-0.54
2023-03-01T20:46:06.731Z,-0.55
2023-03-01T20:48:33.481Z,-0.57
2023-03-01T20:50:59.841Z,-0.61
2023-03-01T20:53:26.135Z,-0.61
2023-03-01T20:55:52.457Z,-0.61
2023-03-01T20:58:18.743Z,-0.61
2023-03-01T21:00:45.138Z,-0.58
2023-03-01T21:03:11.467Z,-0.67
2023-03-01T21:05:37.769Z,-0.77
2023-03-01T21:08:04.288Z,-0.77
2023-03-01T21:10:30.984Z,-0.75
2023-03-01T21:12:57.313Z,-0.81
2023-03-01T21:15:29.414Z,-0.85
2023-03-01T21:17:56.396Z,-0.88
2023-03-01T21:20:22.869Z,-0.97
2023-03-01T21:22:49.186Z,-1.01
2023-03-01T21:25:15.607Z,-0.98
2023-03-01T21:27:43.893Z,-0.98
2023-03-01T21:30:10.957Z,-1.01
2023-03-01T21:32:37.344Z,-1.05
2023-03-01T21:35:03.829Z,-1.06
2023-03-01T21:37:30.169Z,-1.08
2023-03-01T21:39:56.487Z,-1.08
2023-03-01T21:42:22.879Z,-1.14
2023-03-01T21:44:50.511Z,-1.15
2023-03-01T21:47:16.734Z,-1.11
2023-03-01T21:49:43.045Z,-1.18
2023-03-01T21:52:09.387Z,-1.19
2023-03-01T21:54:35.655Z,-1.18
2023-03-01T21:57:01.979Z,-1.20
2023-03-01T21:59:28.301Z,-1.22
2023-03-01T22:01:55.677Z,-1.26
2023-03-01T22:04:24.864Z,-1.31
2023-03-01T22:06:51.474Z,-1.37
2023-03-01T22:09:20.041Z,-1.36
2023-03-01T22:11:48.734Z,-1.39
2023-03-01T22:14:17.045Z,-1.39
2023-03-01T22:16:43.957Z,-1.37
2023-03-01T22:19:10.983Z,-1.34
2023-03-01T22:21:42.542Z,-1.37
2023-03-01T22:24:10.161Z,-1.41
2023-03-01T22:26:38.358Z,-1.43
2023-03-01T22:29:08.188Z,-1.46
2023-03-01T22:31:34.671Z,-1.48
2023-03-01T22:34:02.808Z,-1.48
2023-03-01T22:36:30.224Z,-1.43
2023-03-01T22:38:56.996Z,-1.45
2023-03-01T22:41:24.781Z,-1.50
2023-03-01T22:43:51.068Z,-1.60
2023-03-01T22:46:19.792Z,-1.59
2023-03-01T22:48:46.960Z,-1.62
2023-03-01T22:51:28.154Z,-1.64
2023-03-01T22:53:55.043Z,-1.68
2023-03-01T22:56:24.483Z,-1.64
2023-03-01T22:58:51.360Z,-1.67
2023-03-01T23:01:23.765Z,-1.69
2023-03-01T23:03:50.655Z,-1.72
2023-03-01T23:06:18.406Z,-1.74
2023-03-01T23:08:49.552Z,-1.75
2023-03-01T23:11:17.567Z,-1.70
2023-03-01T23:13:43.907Z,-1.70
2023-03-01T23:16:11.757Z,-1.78
2023-03-01T23:18:38.690Z,-1.81
2023-03-01T23:21:16.033Z,-1.84
2023-03-01T23:23:43.158Z,-1.88
2023-03-01T23:26:09.534Z,-1.89
2023-03-01T23:28:37.160Z,-1.92
2023-03-01T23:31:04.623Z,-1.95
2023-03-01T23:33:32.262Z,-1.94
2023-03-01T23:36:00.912Z,-1.97
2023-03-01T23:38:28.057Z,-1.95
2023-03-01T23:40:54.346Z,-1.97
2023-03-01T23:43:20.674Z,-1.82
2023-03-01T23:45:47.017Z,-1.87
2023-03-01T23:48:13.812Z,-1.89
2023-03-01T23:50:41.068Z,-1.87
2023-03-01T23:53:19.290Z,-1.86
2023-03-01T23:55:49.963Z,-1.86
2023-03-01T23:58:16.720Z,-1.83
